Time;durP1;ratioP1;P1;durP2;ratioP2;P2;SDS_P1;SDS_P2;PMS_P1;PMS_P2;Temp;Humidity;BMP_temperature;BMP_pressure;BME280_temperature;BME280_humidity;BME280_pressure;Samples;Min_cycle;Max_cycle;Signal;HPM_P1;HPM_P2
2021/03/18 00:00:19;;;;;;;7.43;5.30;;;3.00;19.50;;;;;;4886572;28;20701;-73
2021/03/18 00:02:41;;;;;;;8.80;5.63;;;3.00;10.50;;;;;;4878978;28;20221;-79
2021/03/18 00:05:05;;;;;;;6.90;5.73;;;3.00;36.20;;;;;;4862419;28;20194;-76
2021/03/18 00:07:28;;;;;;;8.30;5.73;;;2.90;18.50;;;;;;4876259;28;20232;-80
2021/03/18 00:09:50;;;;;;;6.87;5.60;;;2.90;1.00;;;;;;4871951;28;20600;-80
2021/03/18 00:12:12;;;;;;;8.80;6.17;;;2.90;1.00;;;;;;4877215;28;20324;-77
2021/03/18 00:14:35;;;;;;;7.30;5.50;;;2.80;1.00;;;;;;4873163;28;20240;-80
2021/03/18 00:16:57;;;;;;;6.90;5.03;;;2.80;65.60;;;;;;4892632;28;20556;-82
2021/03/18 00:19:21;;;;;;;7.30;5.17;;;2.80;52.20;;;;;;4880926;28;20224;-79
2021/03/18 00:21:43;;;;;;;8.67;5.10;;;2.70;99.90;;;;;;4872247;28;20190;-78
2021/03/18 00:24:08;;;;;;;7.80;5.23;;;2.70;99.90;;;;;;4891650;28;20181;-76
2021/03/18 00:26:32;;;;;;;6.33;4.97;;;2.70;99.90;;;;;;4898270;28;20238;-80
2021/03/18 00:28:55;;;;;;;7.63;5.80;;;2.70;99.90;;;;;;4887065;28;20685;-81
2021/03/18 00:31:20;;;;;;;5.53;4.90;;;2.70;99.90;;;;;;4848208;28;20672;-74
2021/03/18 00:33:42;;;;;;;7.63;5.37;;;2.60;99.90;;;;;;4844916;28;20648;-80
2021/03/18 00:36:05;;;;;;;7.40;5.60;;;2.60;99.90;;;;;;4894057;28;20192;-79
2021/03/18 00:38:28;;;;;;;6.33;5.47;;;2.60;99.90;;;;;;4861113;28;20271;-79
2021/03/18 00:40:54;;;;;;;8.67;5.93;;;2.60;99.90;;;;;;4897600;28;20609;-81
2021/03/18 00:43:19;;;;;;;6.43;5.50;;;2.50;99.90;;;;;;4897073;28;20189;-79
2021/03/18 00:45:44;;;;;;;8.73;6.37;;;2.50;99.90;;;;;;4859419;28;20259;-78
2021/03/18 00:48:08;;;;;;;8.43;5.93;;;2.50;1.00;;;;;;4880202;28;20279;-78
2021/03/18 00:50:34;;;;;;;9.67;6.13;;;2.50;1.00;;;;;;4896698;28;20228;-74
2021/03/18 00:52:56;;;;;;;10.30;6.60;;;2.50;1.00;;;;;;4879302;28;20573;-80
2021/03/18 00:55:18;;;;;;;8.90;6.60;;;2.40;1.00;;;;;;4879202;28;20194;-77
2021/03/18 00:57:43;;;;;;;7.27;5.93;;;2.50;1.00;;;;;;4880068;28;20197;-78
2021/03/18 01:00:08;;;;;;;12.83;6.97;;;2.40;1.00;;;;;;4879861;28;20213;-76
2021/03/18 01:02:33;;;;;;;8.30;6.63;;;2.40;1.00;;;;;;4845263;28;20312;-77
2021/03/18 01:04:56;;;;;;;8.57;6.60;;;2.40;1.00;;;;;;4857383;28;20718;-80
2021/03/18 01:07:18;;;;;;;8.87;6.77;;;2.40;1.00;;;;;;4877072;28;20219;-79
2021/03/18 01:09:40;;;;;;;8.17;6.20;;;2.40;1.00;;;;;;4865123;28;20291;-80
2021/03/18 01:12:03;;;;;;;7.83;5.90;;;2.30;1.00;;;;;;4896575;28;20204;-74
2021/03/18 01:14:26;;;;;;;7.47;6.63;;;2.30;1.00;;;;;;4879577;28;20236;-81
2021/03/18 01:16:50;;;;;;;8.30;6.20;;;2.40;49.60;;;;;;4889796;28;20232;-78
2021/03/18 01:19:12;;;;;;;7.67;5.93;;;2.30;99.90;;;;;;4893986;28;20262;-79
2021/03/18 01:21:37;;;;;;;8.60;6.47;;;2.30;80.10;;;;;;4879335;28;20193;-77
2021/03/18 01:23:59;;;;;;;8.33;6.33;;;2.30;99.90;;;;;;4856549;28;20197;-78
2021/03/18 01:26:22;;;;;;;8.67;6.53;;;2.30;99.90;;;;;;4877100;28;20251;-81
2021/03/18 01:28:44;;;;;;;7.57;6.23;;;2.20;99.90;;;;;;4854239;28;20193;-79
2021/03/18 01:31:08;;;;;;;9.07;6.60;;;2.20;99.90;;;;;;4898294;28;20180;-79
2021/03/18 01:33:30;;;;;;;8.30;6.87;;;2.20;99.90;;;;;;4879917;28;20185;-76
2021/03/18 01:35:53;;;;;;;7.53;6.43;;;2.20;1.00;;;;;;4866071;28;20190;-77
2021/03/18 01:38:15;;;;;;;7.87;6.77;;;2.10;1.00;;;;;;4890257;28;20224;-80
2021/03/18 01:40:37;;;;;;;8.07;6.67;;;2.20;1.00;;;;;;4874910;28;20271;-81
2021/03/18 01:42:59;;;;;;;9.57;6.77;;;2.10;1.00;;;;;;4877000;28;20251;-76
2021/03/18 01:45:23;;;;;;;9.83;7.27;;;2.10;1.00;;;;;;4842877;28;20199;-79
2021/03/18 01:47:49;;;;;;;9.40;6.83;;;2.10;1.00;;;;;;4878934;28;20231;-79
2021/03/18 01:50:15;;;;;;;8.40;6.73;;;2.10;1.00;;;;;;4862727;28;20729;-80
2021/03/18 01:52:38;;;;;;;10.10;7.50;;;2.10;1.00;;;;;;4889044;28;20181;-81
2021/03/18 01:55:00;;;;;;;9.07;6.93;;;2.00;1.00;;;;;;4882784;28;20189;-77
2021/03/18 01:57:23;;;;;;;8.50;6.90;;;2.10;1.00;;;;;;4876778;28;20243;-79
2021/03/18 01:59:45;;;;;;;8.57;6.77;;;2.00;3.10;;;;;;4895621;28;20262;-76
2021/03/18 02:02:07;;;;;;;8.13;7.07;;;2.10;99.90;;;;;;4882466;28;20186;-81
2021/03/18 02:04:30;;;;;;;8.20;7.10;;;2.00;99.90;;;;;;4886706;28;20219;-78
2021/03/18 02:06:53;;;;;;;8.83;6.50;;;1.90;99.90;;;;;;4859336;28;20968;-76
2021/03/18 02:09:15;;;;;;;9.07;6.17;;;2.00;1.00;;;;;;4887414;28;20593;-78
2021/03/18 02:11:37;;;;;;;7.33;5.87;;;2.00;1.00;;;;;;4843362;28;20195;-79
2021/03/18 02:13:59;;;;;;;8.47;5.90;;;2.00;1.00;;;;;;4861249;28;20652;-80
2021/03/18 02:16:24;;;;;;;6.87;6.00;;;2.00;1.00;;;;;;4879810;28;20186;-81
2021/03/18 02:18:57;;;;;;;6.63;5.80;;;2.00;1.00;;;;;;4887911;28;20193;-81
2021/03/18 02:21:54;;;;;;;7.53;6.30;;;2.00;1.00;;;;;;4894404;28;20209;-78
2021/03/18 02:24:34;;;;;;;8.87;7.33;;;2.10;1.00;;;;;;4878409;28;20546;-78
2021/03/18 02:27:38;;;;;;;9.13;7.60;;;2.10;1.00;;;;;;4883361;28;20647;-78
2021/03/18 02:30:29;;;;;;;9.77;7.97;;;2.20;1.00;;;;;;4862854;28;20217;-81
2021/03/18 02:33:19;;;;;;;8.93;7.43;;;2.20;99.90;;;;;;4897062;28;20247;-80
2021/03/18 02:35:45;;;;;;;10.47;7.93;;;2.20;99.90;;;;;;4868991;28;20702;-80
2021/03/18 02:38:12;;;;;;;9.37;7.87;;;2.20;1.00;;;;;;4882815;28;20200;-79
2021/03/18 02:40:38;;;;;;;9.37;7.10;;;2.10;99.90;;;;;;4871553;28;20634;-80
2021/03/18 02:43:05;;;;;;;8.17;6.70;;;2.20;99.90;;;;;;4842961;28;20264;-79
2021/03/18 02:45:33;;;;;;;8.63;7.30;;;2.30;99.90;;;;;;4877710;28;20251;-80
2021/03/18 02:47:59;;;;;;;10.50;8.07;;;2.30;99.90;;;;;;4870571;28;20662;-80
2021/03/18 02:50:22;;;;;;;9.00;7.57;;;2.30;99.90;;;;;;4877086;28;20635;-81
2021/03/18 02:52:46;;;;;;;9.57;8.20;;;2.30;1.20;;;;;;4858578;28;20639;-77
2021/03/18 02:55:11;;;;;;;10.27;8.50;;;2.30;18.40;;;;;;4886962;28;20302;-75
2021/03/18 02:57:35;;;;;;;9.53;8.50;;;2.30;1.00;;;;;;4892175;28;20197;-77
2021/03/18 03:00:00;;;;;;;9.43;8.10;;;2.30;1.00;;;;;;4881996;28;20242;-79
2021/03/18 03:02:26;;;;;;;9.93;8.57;;;2.30;1.00;;;;;;4893740;28;20197;-74
2021/03/18 03:04:49;;;;;;;10.87;9.17;;;2.40;1.00;;;;;;4894397;28;20185;-75
2021/03/18 03:07:12;;;;;;;10.87;9.07;;;2.30;1.00;;;;;;4877114;28;20186;-75
2021/03/18 03:09:36;;;;;;;9.97;8.67;;;2.30;1.00;;;;;;4873968;28;20193;-77
2021/03/18 03:12:00;;;;;;;8.43;7.60;;;2.40;1.00;;;;;;4896631;28;20597;-80
2021/03/18 03:14:23;;;;;;;9.27;8.03;;;2.30;1.00;;;;;;4859643;28;20662;-78
2021/03/18 03:16:45;;;;;;;9.07;8.10;;;2.30;1.00;;;;;;4876311;28;20235;-76
2021/03/18 03:19:09;;;;;;;9.30;8.20;;;2.30;1.00;;;;;;4863817;28;20233;-80
2021/03/18 03:21:31;;;;;;;10.13;8.53;;;2.40;1.00;;;;;;4841959;28;20582;-80
2021/03/18 03:23:54;;;;;;;9.50;7.87;;;2.30;1.00;;;;;;4874223;28;20563;-77
2021/03/18 03:26:18;;;;;;;9.07;8.03;;;2.30;1.00;;;;;;4890507;28;20181;-75
2021/03/18 03:28:41;;;;;;;9.83;8.83;;;2.40;1.00;;;;;;4887492;28;20189;-80
2021/03/18 03:31:03;;;;;;;11.17;8.70;;;2.40;1.00;;;;;;4868147;28;20194;-78
2021/03/18 03:33:25;;;;;;;9.93;8.67;;;2.40;1.00;;;;;;4895294;28;20180;-80
2021/03/18 03:35:48;;;;;;;9.90;8.17;;;2.30;1.00;;;;;;4859537;28;20202;-73
2021/03/18 03:38:10;;;;;;;8.37;7.47;;;2.40;1.00;;;;;;4847608;28;20664;-80
2021/03/18 03:40:33;;;;;;;8.93;8.03;;;2.40;1.00;;;;;;4860708;28;20446;-77
2021/03/18 03:42:56;;;;;;;8.90;8.00;;;2.20;1.00;;;;;;4894859;28;20196;-80
2021/03/18 03:45:18;;;;;;;9.30;8.37;;;2.20;1.00;;;;;;4875633;28;20185;-73
2021/03/18 03:47:41;;;;;;;9.63;7.90;;;2.20;1.00;;;;;;4876655;28;20186;-81
2021/03/18 03:50:04;;;;;;;8.13;7.03;;;2.20;1.00;;;;;;4860167;28;20698;-76
2021/03/18 03:52:31;;;;;;;8.37;7.57;;;2.20;99.90;;;;;;4876360;28;20177;-79
2021/03/18 03:54:59;;;;;;;8.60;7.67;;;2.10;99.90;;;;;;4877735;28;20956;-74
2021/03/18 03:57:26;;;;;;;9.00;7.63;;;2.10;1.00;;;;;;4875595;28;20189;-77
2021/03/18 03:59:50;;;;;;;8.23;6.33;;;2.10;1.00;;;;;;4860235;28;20221;-77
2021/03/18 04:02:14;;;;;;;5.03;4.53;;;2.10;1.00;;;;;;4874324;28;20744;-77
2021/03/18 04:04:40;;;;;;;5.17;4.67;;;2.10;1.00;;;;;;4879691;28;20236;-78
2021/03/18 04:07:06;;;;;;;5.10;4.60;;;2.20;1.00;;;;;;4895091;28;20223;-76
2021/03/18 04:09:30;;;;;;;5.80;5.20;;;2.10;1.00;;;;;;4869415;28;20236;-79
2021/03/18 04:11:52;;;;;;;5.03;4.53;;;2.10;1.00;;;;;;4891964;28;20647;-79
2021/03/18 04:14:16;;;;;;;4.33;3.63;;;2.10;99.90;;;;;;4875252;28;20263;-81
2021/03/18 04:16:44;;;;;;;4.67;3.60;;;2.00;99.90;;;;;;4893258;28;20655;-77
2021/03/18 04:19:07;;;;;;;4.10;3.50;;;2.10;99.90;;;;;;4848702;28;20690;-78
2021/03/18 04:21:33;;;;;;;4.13;3.73;;;2.00;99.90;;;;;;4873783;28;20225;-79
2021/03/18 04:23:56;;;;;;;4.47;3.47;;;1.90;1.00;;;;;;4861204;28;20194;-79
2021/03/18 04:26:21;;;;;;;4.13;3.43;;;2.00;1.00;;;;;;4876687;28;20259;-80
2021/03/18 04:28:45;;;;;;;3.90;3.50;;;1.90;99.90;;;;;;4889493;28;20193;-79
2021/03/18 04:31:08;;;;;;;4.37;3.97;;;1.90;99.90;;;;;;4872991;28;20189;-80
2021/03/18 04:33:31;;;;;;;4.00;3.63;;;1.90;1.00;;;;;;4873071;28;20711;-81
2021/03/18 04:35:55;;;;;;;4.50;4.10;;;1.80;1.00;;;;;;4878064;28;20205;-77
2021/03/18 04:38:18;;;;;;;4.03;3.57;;;1.70;99.90;;;;;;4887606;28;20294;-78
2021/03/18 04:40:41;;;;;;;5.50;4.03;;;1.70;1.00;;;;;;4873352;28;20268;-79
2021/03/18 04:43:04;;;;;;;4.40;4.00;;;1.70;99.90;;;;;;4894750;28;20177;-81
2021/03/18 04:45:26;;;;;;;5.03;4.53;;;1.60;1.00;;;;;;4894340;28;20258;-80
2021/03/18 04:47:50;;;;;;;5.67;4.50;;;1.70;99.90;;;;;;4875336;28;20288;-80
2021/03/18 04:50:17;;;;;;;5.17;4.63;;;1.60;1.00;;;;;;4877764;28;20225;-81
2021/03/18 04:52:41;;;;;;;5.13;4.63;;;1.50;99.90;;;;;;4873284;28;20193;-79
2021/03/18 04:55:03;;;;;;;4.73;4.00;;;1.50;1.00;;;;;;4876837;28;20197;-79
2021/03/18 04:57:26;;;;;;;4.90;4.37;;;1.50;1.00;;;;;;4861401;28;20202;-80
2021/03/18 04:59:50;;;;;;;5.00;4.27;;;1.50;1.00;;;;;;4864163;28;20257;-80
2021/03/18 05:02:14;;;;;;;4.30;3.90;;;1.50;99.90;;;;;;4882364;28;20189;-80
2021/03/18 05:04:36;;;;;;;4.83;4.33;;;1.50;1.00;;;;;;4896708;28;20189;-80
2021/03/18 05:07:01;;;;;;;5.40;4.87;;;1.40;1.00;;;;;;4897050;28;20193;-80
2021/03/18 05:09:24;;;;;;;4.90;4.40;;;1.40;99.90;;;;;;4880050;28;20193;-79
2021/03/18 05:11:46;;;;;;;6.70;5.30;;;1.40;99.90;;;;;;4880562;28;20251;-81
2021/03/18 05:14:09;;;;;;;6.17;5.10;;;1.40;1.00;;;;;;4896932;28;20760;-81
2021/03/18 05:16:33;;;;;;;7.23;5.67;;;1.30;1.00;;;;;;4878772;28;20250;-79
2021/03/18 05:18:55;;;;;;;9.53;7.50;;;1.40;1.00;;;;;;4862976;28;20186;-79
2021/03/18 05:21:18;;;;;;;10.90;9.07;;;1.30;10.70;;;;;;4897546;28;20200;-77
2021/03/18 05:23:42;;;;;;;15.00;11.87;;;1.30;41.40;;;;;;4879031;28;20197;-81
2021/03/18 05:26:05;;;;;;;19.83;13.53;;;1.30;78.70;;;;;;4893062;28;20220;-80
2021/03/18 05:28:27;;;;;;;18.53;12.97;;;1.40;93.90;;;;;;4875291;28;20284;-79
2021/03/18 05:30:50;;;;;;;27.63;19.67;;;1.40;1.00;;;;;;4894589;28;20211;-76
2021/03/18 05:33:12;;;;;;;28.70;20.70;;;1.30;1.00;;;;;;4894074;28;20181;-80
2021/03/18 05:35:36;;;;;;;26.17;18.00;;;1.40;9.70;;;;;;4888821;28;20245;-80
2021/03/18 05:37:58;;;;;;;17.27;13.03;;;1.40;24.30;;;;;;4878797;28;20213;-81
2021/03/18 05:40:21;;;;;;;22.27;15.40;;;1.40;26.90;;;;;;4885072;28;20212;-78
2021/03/18 05:42:43;;;;;;;35.27;22.00;;;1.40;23.80;;;;;;4863125;28;20251;-79
2021/03/18 05:45:08;;;;;;;41.03;24.03;;;1.40;1.00;;;;;;4878389;28;20319;-76
2021/03/18 05:47:31;;;;;;;37.83;20.27;;;1.40;1.00;;;;;;4877450;28;20201;-81
2021/03/18 05:49:54;;;;;;;26.47;14.67;;;1.40;1.00;;;;;;4866759;28;20221;-80
2021/03/18 05:52:17;;;;;;;20.87;12.47;;;1.50;1.00;;;;;;4861599;28;20308;-79
2021/03/18 05:54:42;;;;;;;17.57;10.83;;;1.50;1.00;;;;;;4878352;28;20598;-80
2021/03/18 05:57:07;;;;;;;17.30;10.70;;;1.60;1.00;;;;;;4891432;28;20192;-80
2021/03/18 05:59:30;;;;;;;16.00;9.97;;;1.60;99.90;;;;;;4868877;28;20604;-79
2021/03/18 06:01:52;;;;;;;20.20;11.13;;;1.60;99.90;;;;;;4842726;28;20304;-80
2021/03/18 06:04:14;;;;;;;18.43;11.97;;;1.80;1.00;;;;;;4860572;28;20202;-80
2021/03/18 06:06:38;;;;;;;31.27;21.00;;;1.70;1.00;;;;;;4894728;28;20204;-78
2021/03/18 06:09:00;;;;;;;30.23;17.83;;;1.80;99.90;;;;;;4895370;28;20671;-80
2021/03/18 06:11:23;;;;;;;27.07;14.70;;;1.80;1.00;;;;;;4887096;28;20189;-81
2021/03/18 06:13:46;;;;;;;18.17;11.40;;;1.90;99.90;;;;;;4895548;28;20201;-80
2021/03/18 06:16:09;;;;;;;17.30;11.03;;;1.90;99.90;;;;;;4878069;28;20646;-81
2021/03/18 06:18:33;;;;;;;17.87;10.20;;;2.00;99.90;;;;;;4863914;28;20210;-78
2021/03/18 06:20:56;;;;;;;11.37;7.17;;;2.00;1.00;;;;;;4861073;28;20238;-79
2021/03/18 06:23:19;;;;;;;10.17;7.20;;;2.10;99.90;;;;;;4872611;28;20296;-79
2021/03/18 06:25:41;;;;;;;10.93;8.37;;;2.20;1.00;;;;;;4894234;28;20243;-80
2021/03/18 06:28:19;;;;;;;14.37;8.47;;;2.20;1.00;;;;;;4877688;28;20185;-77
2021/03/18 06:30:54;;;;;;;10.87;7.27;;;2.30;99.90;;;;;;4867248;28;20572;-78
2021/03/18 06:33:18;;;;;;;11.47;6.87;;;2.40;99.90;;;;;;4890229;28;20246;-78
2021/03/18 06:35:40;;;;;;;12.83;7.83;;;2.30;99.90;;;;;;4877443;28;20200;-80
2021/03/18 06:38:07;;;;;;;11.87;6.93;;;2.40;1.00;;;;;;4861587;28;20194;-77
2021/03/18 06:40:30;;;;;;;6.40;5.07;;;2.30;1.00;;;;;;4869668;28;20218;-81
2021/03/18 06:42:57;;;;;;;9.07;6.37;;;2.30;99.90;;;;;;4846820;28;20201;-77
2021/03/18 06:45:19;;;;;;;11.80;7.40;;;2.30;99.90;;;;;;4884015;28;20227;-80
2021/03/18 06:47:45;;;;;;;8.47;6.77;;;2.20;99.90;;;;;;4867154;28;20886;-81
2021/03/18 06:50:08;;;;;;;11.63;6.83;;;2.20;99.90;;;;;;4873615;28;20283;-80
2021/03/18 06:52:36;;;;;;;11.13;7.30;;;2.10;99.90;;;;;;4869541;28;20197;-80
2021/03/18 06:54:58;;;;;;;10.33;6.97;;;2.10;99.90;;;;;;4876726;28;20705;-80
2021/03/18 06:57:20;;;;;;;10.67;6.90;;;2.00;26.30;;;;;;4869676;28;20182;-75
2021/03/18 06:59:43;;;;;;;11.33;7.33;;;1.80;1.00;;;;;;4872617;28;20189;-80
2021/03/18 07:02:07;;;;;;;8.87;5.97;;;1.80;1.00;;;;;;4859496;28;20687;-80
2021/03/18 07:04:34;;;;;;;7.43;5.80;;;1.80;28.50;;;;;;4859052;28;20213;-80
2021/03/18 07:06:56;;;;;;;11.53;7.13;;;1.70;99.90;;;;;;4868201;28;20239;-77
2021/03/18 07:09:18;;;;;;;13.37;8.80;;;1.70;99.90;;;;;;4860547;28;20202;-80
2021/03/18 07:11:43;;;;;;;10.80;6.80;;;1.70;99.90;;;;;;4857349;28;20206;-79
2021/03/18 07:14:06;;;;;;;7.93;6.00;;;1.80;99.90;;;;;;4859358;28;20582;-79
2021/03/18 07:16:44;;;;;;;6.87;5.33;;;1.80;99.90;;;;;;4874583;28;20224;-81
2021/03/18 07:19:07;;;;;;;6.10;4.80;;;1.90;99.90;;;;;;4868803;28;20254;-79
2021/03/18 07:21:36;;;;;;;7.27;4.80;;;2.00;99.90;;;;;;4872064;28;20248;-83
2021/03/18 07:23:58;;;;;;;7.20;5.63;;;2.10;99.90;;;;;;4854950;28;20611;-81
2021/03/18 07:26:21;;;;;;;7.87;5.67;;;2.40;1.00;;;;;;4839389;28;20221;-77
2021/03/18 07:28:46;;;;;;;6.43;4.30;;;2.70;1.00;;;;;;4866516;28;20185;-81
2021/03/18 07:31:08;;;;;;;5.87;4.63;;;2.80;1.00;;;;;;4876859;28;20181;-81
2021/03/18 07:33:32;;;;;;;5.17;4.47;;;3.00;99.90;;;;;;4856807;28;20248;-80
2021/03/18 07:35:54;;;;;;;6.67;5.40;;;3.10;99.90;;;;;;4856309;28;20657;-80
2021/03/18 07:38:17;;;;;;;8.57;4.73;;;3.00;99.90;;;;;;4860811;28;20634;-74
2021/03/18 07:40:39;;;;;;;5.80;4.47;;;3.00;99.90;;;;;;4860012;28;20263;-80
2021/03/18 07:43:01;;;;;;;5.73;4.07;;;3.10;99.90;;;;;;4858481;28;20710;-77
2021/03/18 07:45:25;;;;;;;5.00;3.33;;;3.10;99.90;;;;;;4874495;28;20182;-79
2021/03/18 07:47:48;;;;;;;4.87;3.50;;;3.10;99.90;;;;;;4875560;28;20185;-79
2021/03/18 07:50:13;;;;;;;4.63;3.20;;;3.30;59.80;;;;;;4861927;28;20213;-80
2021/03/18 07:52:38;;;;;;;3.97;3.33;;;3.50;2.80;;;;;;4844777;28;20197;-79
2021/03/18 07:55:02;;;;;;;6.17;4.13;;;3.60;1.00;;;;;;4860920;28;20193;-81
2021/03/18 07:57:25;;;;;;;5.97;4.00;;;3.70;1.00;;;;;;4864714;28;20231;-81
2021/03/18 07:59:48;;;;;;;4.00;3.17;;;3.80;1.00;;;;;;4857559;28;20198;-83
2021/03/18 08:02:11;;;;;;;3.83;3.40;;;4.00;1.00;;;;;;4855715;28;20221;-79
2021/03/18 08:04:40;;;;;;;10.23;7.00;;;4.50;1.00;;;;;;4871246;28;20220;-83
2021/03/18 08:07:02;;;;;;;9.07;7.30;;;5.00;1.00;;;;;;4838988;28;20244;-79
2021/03/18 08:09:53;;;;;;;8.53;5.70;;;5.50;1.00;;;;;;4852264;28;20270;-81
2021/03/18 08:12:16;;;;;;;13.93;10.47;;;5.80;1.00;;;;;;4856942;28;20236;-80
2021/03/18 08:14:38;;;;;;;4.53;3.20;;;6.00;1.00;;;;;;4840188;28;20285;-83
2021/03/18 08:17:00;;;;;;;6.37;5.13;;;6.10;1.00;;;;;;4861973;28;20194;-79
2021/03/18 08:19:23;;;;;;;7.97;3.10;;;6.10;1.00;;;;;;4859503;28;20693;-76
2021/03/18 08:21:47;;;;;;;3.67;2.53;;;6.10;1.00;;;;;;4858855;28;20284;-76
2021/03/18 08:24:11;;;;;;;5.10;2.83;;;6.00;1.00;;;;;;4866587;28;20647;-77
2021/03/18 08:26:48;;;;;;;2.70;2.20;;;5.80;1.00;;;;;;4855540;28;20205;-79
2021/03/18 08:29:20;;;;;;;2.40;2.10;;;5.60;1.00;;;;;;4867134;28;20235;-79
2021/03/18 08:31:48;;;;;;;2.87;2.67;;;5.70;1.00;;;;;;4859737;28;20644;-81
2021/03/18 08:34:11;;;;;;;4.10;2.70;;;5.90;1.00;;;;;;4860735;28;20613;-77
2021/03/18 08:36:35;;;;;;;2.73;2.53;;;6.20;1.00;;;;;;4873015;28;20182;-81
2021/03/18 08:38:58;;;;;;;2.63;2.00;;;6.50;1.00;;;;;;4862147;28;20623;-76
2021/03/18 08:41:27;;;;;;;3.97;2.23;;;6.80;1.00;;;;;;4863296;28;20280;-79
2021/03/18 08:44:16;;;;;;;2.30;2.07;;;7.00;1.00;;;;;;4859932;28;20244;-77
2021/03/18 08:46:39;;;;;;;3.00;2.33;;;7.10;1.00;;;;;;4858627;28;20182;-77
2021/03/18 08:49:24;;;;;;;2.07;1.83;;;7.00;1.00;;;;;;4857505;28;20205;-84
2021/03/18 08:51:47;;;;;;;2.37;1.60;;;7.00;1.00;;;;;;4870986;28;20229;-81
2021/03/18 08:54:10;;;;;;;2.77;2.40;;;7.50;1.00;;;;;;4843465;28;20194;-81
2021/03/18 08:56:42;;;;;;;2.33;2.10;;;8.20;1.00;;;;;;4860023;28;20205;-81
2021/03/18 08:59:11;;;;;;;1.40;1.30;;;8.90;1.00;;;;;;4858072;28;20206;-80
2021/03/18 09:01:34;;;;;;;1.53;1.43;;;9.40;1.00;;;;;;4868147;28;20238;-80
2021/03/18 09:03:58;;;;;;;2.30;2.10;;;9.70;1.00;;;;;;4861269;28;20280;-81
2021/03/18 09:06:20;;;;;;;1.60;1.50;;;10.00;1.00;;;;;;4857681;28;20679;-83
2021/03/18 09:08:47;;;;;;;1.50;1.40;;;10.10;1.00;;;;;;4873723;28;20182;-76
2021/03/18 09:11:09;;;;;;;1.33;1.23;;;10.50;1.00;;;;;;4843360;28;20672;-78
2021/03/18 09:13:36;;;;;;;1.60;1.43;;;11.50;1.00;;;;;;4867219;28;20659;-84
2021/03/18 09:15:59;;;;;;;1.30;1.20;;;12.10;1.00;;;;;;4869261;28;20652;-80
2021/03/18 09:18:23;;;;;;;1.77;1.23;;;12.40;1.00;;;;;;4866447;28;20605;-82
2021/03/18 09:20:48;;;;;;;1.30;1.20;;;12.30;1.00;;;;;;4872114;28;20271;-78
2021/03/18 09:23:13;;;;;;;0.90;0.90;;;12.70;1.00;;;;;;4864649;28;20185;-73
2021/03/18 09:25:35;;;;;;;1.20;1.13;;;12.80;1.00;;;;;;4865009;28;20311;-78
2021/03/18 09:27:59;;;;;;;1.73;1.63;;;12.40;1.00;;;;;;4863868;28;20190;-81
2021/03/18 09:30:28;;;;;;;2.00;1.43;;;11.80;1.00;;;;;;4857311;28;20194;-82
2021/03/18 09:32:51;;;;;;;1.10;1.10;;;11.00;1.00;;;;;;4863453;28;20271;-86
2021/03/18 09:35:15;;;;;;;1.33;1.23;;;10.40;1.00;;;;;;4869452;28;20186;-81
2021/03/18 09:37:37;;;;;;;1.13;1.13;;;9.70;1.00;;;;;;4876260;28;20201;-80
2021/03/18 09:39:59;;;;;;;1.43;1.20;;;9.10;1.00;;;;;;4870860;28;20303;-80
2021/03/18 09:42:21;;;;;;;1.27;1.20;;;8.70;1.00;;;;;;4860057;28;20256;-79
2021/03/18 09:44:43;;;;;;;1.50;1.40;;;8.30;1.00;;;;;;4864833;28;20272;-82
2021/03/18 09:47:07;;;;;;;1.20;1.10;;;7.90;1.00;;;;;;4871357;28;20231;-77
2021/03/18 09:49:30;;;;;;;1.30;1.20;;;7.70;1.00;;;;;;4858989;28;20259;-81
2021/03/18 09:51:54;;;;;;;1.50;1.40;;;7.60;1.00;;;;;;4891356;28;20705;-80
2021/03/18 09:54:18;;;;;;;1.93;1.57;;;8.20;1.00;;;;;;4878322;28;21116;-78
2021/03/18 09:56:42;;;;;;;1.27;1.20;;;10.30;1.00;;;;;;4883189;28;20601;-80
2021/03/18 09:59:06;;;;;;;1.13;1.13;;;12.60;1.00;;;;;;4877096;28;20177;-76
2021/03/18 10:01:30;;;;;;;0.63;0.63;;;14.00;1.00;;;;;;4872841;28;20217;-80
2021/03/18 10:03:56;;;;;;;0.73;0.73;;;14.70;1.00;;;;;;4849918;28;20190;-81
2021/03/18 10:06:25;;;;;;;0.60;0.60;;;14.90;1.00;;;;;;4867060;28;20193;-81
2021/03/18 10:08:48;;;;;;;0.80;0.80;;;14.60;99.90;;;;;;4861129;28;20194;-80
2021/03/18 10:11:14;;;;;;;0.63;0.63;;;13.90;99.90;;;;;;4860290;28;20617;-82
2021/03/18 10:13:37;;;;;;;0.40;0.40;;;13.10;99.90;;;;;;4859434;28;20263;-82
2021/03/18 10:15:59;;;;;;;0.70;0.70;;;12.50;99.90;;;;;;4875385;28;20186;-83
2021/03/18 10:18:21;;;;;;;0.67;0.67;;;12.30;99.90;;;;;;4876812;28;20251;-83
2021/03/18 10:20:43;;;;;;;0.70;0.70;;;13.10;99.90;;;;;;4878963;28;20235;-82
2021/03/18 10:23:07;;;;;;;0.60;0.60;;;13.80;99.90;;;;;;4843321;28;20590;-80
2021/03/18 10:25:32;;;;;;;0.50;0.50;;;14.70;99.90;;;;;;4859832;28;20210;-84
2021/03/18 10:28:10;;;;;;;0.50;0.50;;;15.50;99.90;;;;;;4858635;28;20186;-83
2021/03/18 10:30:33;;;;;;;0.40;0.40;;;15.50;99.90;;;;;;4861451;28;20284;-76
2021/03/18 10:33:08;;;;;;;0.60;0.60;;;14.90;99.90;;;;;;4876369;28;20761;-85
2021/03/18 10:35:31;;;;;;;0.60;0.60;;;14.10;99.90;;;;;;4882190;28;20845;-82
2021/03/18 10:37:53;;;;;;;0.50;0.50;;;13.40;99.90;;;;;;4881566;28;20186;-77
2021/03/18 10:40:19;;;;;;;0.60;0.47;;;13.10;99.90;;;;;;4870880;28;20217;-80
2021/03/18 10:42:44;;;;;;;0.50;0.50;;;14.40;99.90;;;;;;4860942;28;20214;-76
2021/03/18 10:45:13;;;;;;;0.33;0.33;;;16.20;99.90;;;;;;4895978;28;20548;-77
2021/03/18 10:47:40;;;;;;;0.30;0.30;;;16.70;99.90;;;;;;4867232;28;20224;-79
2021/03/18 10:50:05;;;;;;;0.30;0.30;;;16.30;99.90;;;;;;4840713;28;20202;-82
2021/03/18 10:52:28;;;;;;;0.37;0.37;;;15.50;99.90;;;;;;4885043;28;20242;-83
2021/03/18 10:54:54;;;;;;;0.37;0.37;;;15.20;99.90;;;;;;4879017;28;20728;-81
2021/03/18 10:57:16;;;;;;;0.30;0.30;;;15.20;99.90;;;;;;4859049;28;20210;-78
2021/03/18 10:59:39;;;;;;;0.40;0.40;;;14.80;99.90;;;;;;4895147;28;20242;-83
2021/03/18 11:02:04;;;;;;;0.50;0.50;;;14.00;99.90;;;;;;4841621;28;20676;-82
2021/03/18 11:04:26;;;;;;;0.47;0.47;;;13.00;99.90;;;;;;4877675;28;20658;-81
2021/03/18 11:06:50;;;;;;;1.20;1.17;;;12.00;99.90;;;;;;4860184;28;20871;-81
2021/03/18 11:09:12;;;;;;;1.17;1.17;;;11.10;99.90;;;;;;4877214;28;20250;-82
2021/03/18 11:11:34;;;;;;;1.43;1.37;;;10.20;99.90;;;;;;4876812;28;20634;-82
2021/03/18 11:14:05;;;;;;;3.20;3.00;;;9.40;99.90;;;;;;4860970;28;20252;-78
2021/03/18 11:16:28;;;;;;;1.50;1.40;;;8.80;99.90;;;;;;4876274;28;20695;-83
2021/03/18 11:18:56;;;;;;;4.00;3.60;;;8.40;99.90;;;;;;4860844;28;20194;-81
2021/03/18 11:21:21;;;;;;;1.87;1.77;;;8.20;99.90;;;;;;4876338;28;20255;-80
2021/03/18 11:23:44;;;;;;;5.03;4.60;;;8.00;99.90;;;;;;4858248;28;20236;-79
2021/03/18 11:26:07;;;;;;;1.57;1.40;;;8.00;99.90;;;;;;4841426;28;20246;-79
2021/03/18 11:28:30;;;;;;;2.47;2.27;;;8.30;99.90;;;;;;4858101;28;20198;-80
2021/03/18 11:30:54;;;;;;;2.57;2.37;;;8.80;99.90;;;;;;4857567;28;20218;-81
2021/03/18 11:33:19;;;;;;;3.00;2.80;;;9.30;99.90;;;;;;4874530;28;20534;-78
2021/03/18 11:35:44;;;;;;;7.40;6.67;;;9.70;99.90;;;;;;4841405;28;20249;-77
2021/03/18 11:38:07;;;;;;;8.67;7.23;;;9.70;99.90;;;;;;4858641;28;20197;-78
2021/03/18 11:40:35;;;;;;;4.93;4.50;;;9.50;99.90;;;;;;4859460;28;20244;-75
2021/03/18 11:42:58;;;;;;;4.17;3.77;;;9.00;99.90;;;;;;4859872;28;20217;-80
2021/03/18 11:45:20;;;;;;;2.30;2.10;;;8.40;99.90;;;;;;4876358;28;20823;-80
2021/03/18 11:47:42;;;;;;;3.10;2.80;;;8.00;99.90;;;;;;4895543;28;20563;-80
2021/03/18 11:50:07;;;;;;;2.67;2.20;;;7.60;99.90;;;;;;4876722;28;20351;-83
2021/03/18 11:52:31;;;;;;;2.00;1.83;;;7.30;1.00;;;;;;4860285;28;20194;-81
2021/03/18 11:54:54;;;;;;;2.93;2.63;;;7.20;1.00;;;;;;4859362;28;20205;-74
2021/03/18 11:57:16;;;;;;;6.57;5.20;;;7.10;1.00;;;;;;4893746;28;20404;-81
2021/03/18 11:59:38;;;;;;;6.10;4.67;;;7.30;1.00;;;;;;4894387;28;20234;-78
2021/03/18 12:02:01;;;;;;;9.53;7.90;;;8.50;1.00;;;;;;4875294;28;20543;-79
2021/03/18 12:04:23;;;;;;;1.90;1.80;;;10.90;1.00;;;;;;4875935;28;20193;-82
2021/03/18 12:06:46;;;;;;;1.20;1.17;;;14.50;1.00;;;;;;4894405;28;20254;-79
2021/03/18 12:09:08;;;;;;;0.37;0.37;;;18.30;1.00;;;;;;4878352;28;20193;-81
2021/03/18 12:11:30;;;;;;;0.30;0.30;;;21.70;99.90;;;;;;4899051;28;20192;-79
2021/03/18 12:13:52;;;;;;;0.20;0.20;;;24.80;99.90;;;;;;4898967;28;20184;-78
2021/03/18 12:16:14;;;;;;;0.20;0.20;;;27.70;99.90;;;;;;4897074;28;20238;-79
2021/03/18 12:18:37;;;;;;;0.20;0.20;;;30.60;99.90;;;;;;4899610;28;20668;-79
2021/03/18 12:20:59;;;;;;;0.20;0.20;;;33.00;99.90;;;;;;4898839;28;20188;-81
2021/03/18 12:23:23;;;;;;;0.10;0.10;;;34.80;99.90;;;;;;4880514;28;20814;-80
2021/03/18 12:25:45;;;;;;;0.20;0.20;;;34.60;99.90;;;;;;4897664;28;20184;-74
2021/03/18 12:28:08;;;;;;;0.17;0.17;;;32.40;99.90;;;;;;4898187;28;20320;-80
2021/03/18 12:30:30;;;;;;;0.20;0.20;;;29.50;99.90;;;;;;4897575;28;20649;-79
2021/03/18 12:32:53;;;;;;;0.30;0.30;;;26.30;99.90;;;;;;4861733;28;20246;-78
2021/03/18 12:35:16;;;;;;;0.20;0.20;;;23.20;99.90;;;;;;4862979;28;20209;-80
2021/03/18 12:37:38;;;;;;;0.20;0.20;;;20.50;99.90;;;;;;4859544;28;20256;-80
2021/03/18 12:40:02;;;;;;;0.20;0.20;;;18.20;99.90;;;;;;4889804;28;20684;-79
2021/03/18 12:42:24;;;;;;;0.20;0.20;;;16.20;99.90;;;;;;4880154;28;20570;-78